createdAt,value
2017-10-20T00:03:04.351Z,13.50
2017-10-20T00:06:14.444Z,13.40
2017-10-20T00:09:24.274Z,13.40
2017-10-20T00:12:34.146Z,13.40
2017-10-20T00:15:44.229Z,13.30
2017-10-20T00:18:54.189Z,13.20
2017-10-20T00:22:04.290Z,13.20
2017-10-20T00:25:14.926Z,13.00
2017-10-20T00:28:25.110Z,13.00
2017-10-20T00:31:34.924Z,13.00
2017-10-20T00:34:45.206Z,13.00
2017-10-20T00:37:55.421Z,13.00
2017-10-20T00:41:06.034Z,13.00
2017-10-20T00:44:16.677Z,13.00
2017-10-20T00:47:27.000Z,13.00
2017-10-20T00:50:37.182Z,12.90
2017-10-20T00:53:47.183Z,12.90
2017-10-20T00:56:57.326Z,12.90
2017-10-20T01:00:08.126Z,12.80
2017-10-20T01:03:18.572Z,12.80
2017-10-20T01:06:32.450Z,12.80
2017-10-20T01:09:43.018Z,12.80
2017-10-20T01:12:53.223Z,12.70
2017-10-20T01:16:02.990Z,12.70
2017-10-20T01:19:12.533Z,12.70
2017-10-20T01:22:22.298Z,12.70
2017-10-20T01:25:32.267Z,12.60
2017-10-20T01:28:42.258Z,12.60
2017-10-20T01:31:52.409Z,12.60
2017-10-20T01:35:01.971Z,12.50
2017-10-20T01:38:12.510Z,12.60
2017-10-20T01:41:22.579Z,12.50
2017-10-20T01:44:32.843Z,12.40
2017-10-20T01:47:42.779Z,12.30
2017-10-20T01:50:52.645Z,12.20
2017-10-20T01:54:03.301Z,12.10
2017-10-20T01:57:13.961Z,12.00
2017-10-20T02:00:23.748Z,12.00
2017-10-20T02:03:33.430Z,12.10
2017-10-20T02:06:43.737Z,12.10
2017-10-20T02:09:53.889Z,12.10
2017-10-20T02:13:03.799Z,11.90
2017-10-20T02:16:13.549Z,11.90
2017-10-20T02:19:23.932Z,11.80
2017-10-20T02:22:33.822Z,11.80
2017-10-20T02:25:43.631Z,11.60
2017-10-20T02:28:53.610Z,11.50
2017-10-20T02:32:03.899Z,11.30
2017-10-20T02:35:13.917Z,11.20
2017-10-20T02:38:23.834Z,11.20
2017-10-20T02:41:33.956Z,11.20
2017-10-20T02:44:43.958Z,11.20
2017-10-20T02:47:54.080Z,11.10
2017-10-20T02:51:04.005Z,10.90
2017-10-20T02:54:13.931Z,10.90
2017-10-20T02:57:23.908Z,10.80
2017-10-20T03:00:33.450Z,10.70
2017-10-20T03:03:43.766Z,10.70
2017-10-20T03:06:54.058Z,10.50
2017-10-20T03:10:04.882Z,10.50
2017-10-20T03:13:15.359Z,10.40
2017-10-20T03:16:25.441Z,10.50
2017-10-20T03:19:35.747Z,10.60
2017-10-20T03:22:46.437Z,10.60
2017-10-20T03:25:56.660Z,10.50
2017-10-20T03:29:07.966Z,10.70
2017-10-20T03:32:18.567Z,10.70
2017-10-20T03:35:28.653Z,10.80
2017-10-20T03:38:39.310Z,10.80
2017-10-20T03:41:49.609Z,10.80
2017-10-20T03:44:59.642Z,10.80
2017-10-20T03:48:09.624Z,10.80
2017-10-20T03:51:19.623Z,10.80
2017-10-20T03:54:29.583Z,10.70
2017-10-20T03:57:39.512Z,10.70
2017-10-20T04:00:50.140Z,10.60
2017-10-20T04:04:01.241Z,10.70
2017-10-20T04:07:11.467Z,10.70
2017-10-20T04:10:21.135Z,10.70
2017-10-20T04:13:31.531Z,10.80
2017-10-20T04:16:41.299Z,10.70
2017-10-20T04:19:51.380Z,10.80
2017-10-20T04:23:01.343Z,10.60
2017-10-20T04:26:11.362Z,10.50
2017-10-20T04:29:21.833Z,10.60
2017-10-20T04:32:31.786Z,10.60
2017-10-20T04:35:41.827Z,10.60
2017-10-20T04:38:52.550Z,10.60
2017-10-20T04:42:02.687Z,10.60
2017-10-20T04:45:12.453Z,10.60
2017-10-20T04:48:22.713Z,10.50
2017-10-20T04:51:33.150Z,10.40
2017-10-20T04:54:44.002Z,10.60
2017-10-20T04:57:55.038Z,10.50
2017-10-20T05:01:05.249Z,10.70
2017-10-20T05:04:16.136Z,10.80
2017-10-20T05:07:26.127Z,10.90
2017-10-20T05:10:36.117Z,10.90
2017-10-20T05:13:46.785Z,10.90
2017-10-20T05:16:56.944Z,11.00
2017-10-20T05:20:07.090Z,10.90
2017-10-20T05:23:17.184Z,10.90
2017-10-20T05:26:27.244Z,10.80
2017-10-20T05:29:37.813Z,10.80
2017-10-20T05:32:48.640Z,10.80
2017-10-20T05:35:58.784Z,10.80
2017-10-20T05:39:08.830Z,10.80
2017-10-20T05:42:18.805Z,10.80
2017-10-20T05:45:28.861Z,10.70
2017-10-20T05:48:38.887Z,10.70
2017-10-20T05:51:49.863Z,10.70
2017-10-20T05:54:59.991Z,10.70
2017-10-20T05:58:09.937Z,10.90
2017-10-20T06:01:21.269Z,10.90
2017-10-20T06:04:31.912Z,11.00
2017-10-20T06:07:42.982Z,11.00
2017-10-20T06:10:53.250Z,11.00
2017-10-20T06:14:04.023Z,11.10
2017-10-20T06:17:13.817Z,11.10
2017-10-20T06:20:24.147Z,11.10
2017-10-20T06:23:33.882Z,11.20
2017-10-20T06:26:43.863Z,11.30
2017-10-20T06:29:54.004Z,11.30
2017-10-20T06:33:04.130Z,11.40
2017-10-20T06:36:14.314Z,11.40
2017-10-20T06:39:25.150Z,11.50
2017-10-20T06:42:35.746Z,11.50
2017-10-20T06:45:45.796Z,11.60
2017-10-20T06:48:56.468Z,11.90
2017-10-20T06:52:06.708Z,11.90
2017-10-20T06:55:17.435Z,12.00
2017-10-20T06:58:27.950Z,12.10
2017-10-20T07:01:37.896Z,12.20
2017-10-20T07:04:47.662Z,12.30
2017-10-20T07:07:57.540Z,12.40
2017-10-20T07:11:07.614Z,12.50
2017-10-20T07:14:18.586Z,12.90
2017-10-20T07:17:28.828Z,12.80
2017-10-20T07:20:39.067Z,13.00
2017-10-20T07:23:49.945Z,13.50
2017-10-20T07:27:00.213Z,13.50
2017-10-20T07:30:10.254Z,13.60
2017-10-20T07:33:20.708Z,13.70
2017-10-20T07:36:31.820Z,13.90
2017-10-20T07:39:41.698Z,13.90
2017-10-20T07:42:51.778Z,14.00
2017-10-20T07:46:02.578Z,14.10
2017-10-20T07:49:13.548Z,14.30
2017-10-20T07:52:25.004Z,14.50
2017-10-20T07:55:35.922Z,14.60
2017-10-20T07:58:46.128Z,14.60
2017-10-20T08:01:57.403Z,14.50
2017-10-20T08:05:07.588Z,14.50
2017-10-20T08:08:17.971Z,14.50
2017-10-20T08:11:28.568Z,14.40
2017-10-20T08:14:39.149Z,14.40
2017-10-20T08:17:48.979Z,14.50
2017-10-20T08:20:59.519Z,14.50
2017-10-20T08:24:10.140Z,14.60
2017-10-20T08:27:20.358Z,14.80
2017-10-20T08:30:31.011Z,15.70
2017-10-20T08:33:41.622Z,15.70
2017-10-20T08:36:51.830Z,15.80
2017-10-20T08:40:02.166Z,15.90
2017-10-20T08:43:12.101Z,16.10
2017-10-20T08:46:21.972Z,16.10
2017-10-20T08:49:32.275Z,16.10
2017-10-20T08:52:42.706Z,16.10
2017-10-20T08:55:52.900Z,16.10
2017-10-20T08:59:04.987Z,16.10
2017-10-20T09:05:27.369Z,16.50
2017-10-20T09:08:37.622Z,16.70
2017-10-20T09:11:47.857Z,16.90
2017-10-20T09:14:57.639Z,17.00
2017-10-20T09:18:08.345Z,17.10
2017-10-20T09:21:18.886Z,17.10
2017-10-20T09:24:29.484Z,17.20
2017-10-20T09:27:40.238Z,17.20
2017-10-20T09:30:51.173Z,17.30
2017-10-20T09:34:01.183Z,17.40
2017-10-20T09:37:11.318Z,17.60
2017-10-20T09:40:22.101Z,17.60
2017-10-20T09:43:33.261Z,17.70
2017-10-20T09:46:43.248Z,17.70
2017-10-20T09:49:54.182Z,17.70
2017-10-20T09:53:05.441Z,17.80
2017-10-20T09:56:16.460Z,17.70
2017-10-20T09:59:26.883Z,17.80
2017-10-20T10:02:36.937Z,17.80
2017-10-20T10:05:46.707Z,17.90
2017-10-20T10:08:56.977Z,17.80
2017-10-20T10:12:06.922Z,17.90
2017-10-20T10:15:17.282Z,18.00
2017-10-20T10:18:27.102Z,18.10
2017-10-20T10:21:37.054Z,18.50
2017-10-20T10:24:46.439Z,18.60
2017-10-20T10:27:57.154Z,19.00
2017-10-20T10:31:06.940Z,19.00
2017-10-20T10:34:17.645Z,19.10
2017-10-20T10:37:28.183Z,19.10
2017-10-20T10:40:37.779Z,19.20
2017-10-20T10:43:48.845Z,19.30
2017-10-20T10:46:58.873Z,19.30
2017-10-20T10:50:10.364Z,19.20
2017-10-20T10:53:20.944Z,19.10
2017-10-20T10:56:32.055Z,19.10
2017-10-20T10:59:42.156Z,19.10
2017-10-20T11:02:51.964Z,19.20
2017-10-20T11:06:15.330Z,19.20
2017-10-20T11:09:26.424Z,19.10
2017-10-20T11:12:42.541Z,19.10
2017-10-20T11:15:53.121Z,19.10
2017-10-20T11:19:03.108Z,19.30
2017-10-20T11:22:13.749Z,19.20
2017-10-20T11:25:26.242Z,19.20
2017-10-20T11:28:37.250Z,19.20
2017-10-20T11:31:47.790Z,19.10
2017-10-20T11:34:57.858Z,19.00
2017-10-20T11:38:08.886Z,18.70
2017-10-20T11:41:18.688Z,18.60
2017-10-20T11:44:28.873Z,18.60
2017-10-20T11:47:39.408Z,18.60
2017-10-20T11:50:49.585Z,18.60
2017-10-20T11:53:59.992Z,18.60
2017-10-20T11:57:12.200Z,18.60
2017-10-20T12:00:23.019Z,18.60
2017-10-20T12:03:33.377Z,18.50
2017-10-20T12:06:44.327Z,18.50
2017-10-20T12:09:53.828Z,18.50
2017-10-20T12:13:05.067Z,18.20
2017-10-20T12:16:15.161Z,18.20
2017-10-20T12:19:26.989Z,18.30
2017-10-20T12:22:38.406Z,18.30
2017-10-20T12:25:48.706Z,18.20
2017-10-20T12:28:59.618Z,18.30
2017-10-20T12:32:09.887Z,18.30
2017-10-20T12:35:20.232Z,18.20
2017-10-20T12:38:30.925Z,18.10
2017-10-20T12:41:41.551Z,18.10
2017-10-20T12:44:51.751Z,18.00
2017-10-20T12:48:02.562Z,17.80
2017-10-20T12:51:16.940Z,17.80
2017-10-20T12:54:27.115Z,17.80
2017-10-20T12:57:37.309Z,17.80
2017-10-20T13:00:47.067Z,17.80
2017-10-20T13:03:57.492Z,17.80
2017-10-20T13:07:07.316Z,17.90
2017-10-20T13:10:17.396Z,17.90
2017-10-20T13:13:27.283Z,17.90
2017-10-20T13:16:37.256Z,18.00
2017-10-20T13:19:48.093Z,18.00
2017-10-20T13:22:58.457Z,18.00
2017-10-20T13:26:08.524Z,18.00
2017-10-20T13:29:18.966Z,18.10
2017-10-20T13:32:29.585Z,18.10
2017-10-20T13:35:40.591Z,18.00
2017-10-20T13:38:50.580Z,17.90
2017-10-20T13:42:01.406Z,17.90
2017-10-20T13:45:11.970Z,17.90
2017-10-20T13:48:22.121Z,17.80
2017-10-20T13:51:32.203Z,17.80
2017-10-20T13:54:43.456Z,17.80
2017-10-20T13:57:53.650Z,17.80
2017-10-20T14:01:04.385Z,17.80
2017-10-20T14:04:14.624Z,17.80
2017-10-20T14:07:24.534Z,17.90
2017-10-20T14:10:34.893Z,17.90
2017-10-20T14:13:44.896Z,17.90
2017-10-20T14:16:54.934Z,18.10
2017-10-20T14:20:04.891Z,18.30
2017-10-20T14:23:14.880Z,18.30
2017-10-20T14:26:26.309Z,18.30
2017-10-20T14:29:36.073Z,18.30
2017-10-20T14:32:46.239Z,18.30
2017-10-20T14:35:56.409Z,18.30
2017-10-20T14:39:06.368Z,18.20
2017-10-20T14:42:16.270Z,18.20
2017-10-20T14:45:26.376Z,18.30
2017-10-20T14:48:37.294Z,18.20
2017-10-20T14:51:47.503Z,18.20
2017-10-20T14:54:57.525Z,18.20
2017-10-20T14:58:07.522Z,18.20
2017-10-20T15:01:17.837Z,18.20
2017-10-20T15:04:28.198Z,18.10
2017-10-20T15:07:38.038Z,18.20
2017-10-20T15:10:48.203Z,18.10
2017-10-20T15:13:58.661Z,18.10
2017-10-20T15:17:08.670Z,18.10
2017-10-20T15:20:19.597Z,17.80
2017-10-20T15:23:29.582Z,17.80
2017-10-20T15:26:39.603Z,17.80
2017-10-20T15:29:50.279Z,17.70
2017-10-20T15:33:01.066Z,17.60
2017-10-20T15:36:10.950Z,17.50
2017-10-20T15:39:21.080Z,17.40
2017-10-20T15:42:31.882Z,17.40
2017-10-20T15:45:43.006Z,17.30
2017-10-20T15:48:53.237Z,17.30
2017-10-20T15:52:03.155Z,17.30
2017-10-20T15:55:13.522Z,17.30
2017-10-20T15:58:24.089Z,17.20
2017-10-20T16:01:34.087Z,17.20
2017-10-20T16:04:44.087Z,17.20
2017-10-20T16:07:54.125Z,17.20
2017-10-20T16:11:04.756Z,17.20
2017-10-20T16:14:14.597Z,17.20
2017-10-20T16:17:24.990Z,17.10
2017-10-20T16:20:35.035Z,17.10
2017-10-20T16:23:44.854Z,17.00
2017-10-20T16:26:54.613Z,17.00
2017-10-20T16:30:04.154Z,17.10
2017-10-20T16:33:14.482Z,17.10
2017-10-20T16:36:24.587Z,17.00
2017-10-20T16:39:36.452Z,17.00
2017-10-20T16:42:47.320Z,16.90
2017-10-20T16:45:57.766Z,16.90
2017-10-20T16:49:08.500Z,16.80
2017-10-20T16:52:18.611Z,16.80
2017-10-20T16:55:29.254Z,16.60
2017-10-20T16:58:39.332Z,16.60
2017-10-20T17:01:49.276Z,16.60
2017-10-20T17:04:59.310Z,16.60
2017-10-20T17:08:09.219Z,16.60
2017-10-20T17:11:20.172Z,16.50
2017-10-20T17:14:30.442Z,16.50
2017-10-20T17:17:41.625Z,16.40
2017-10-20T17:20:52.748Z,16.40
2017-10-20T17:24:03.726Z,16.40
2017-10-20T17:27:14.392Z,16.30
2017-10-20T17:30:26.230Z,16.30
2017-10-20T17:33:37.134Z,16.40
2017-10-20T17:36:49.046Z,16.40
2017-10-20T17:39:59.170Z,16.30
2017-10-20T17:43:09.044Z,16.20
2017-10-20T17:46:20.340Z,16.20
2017-10-20T17:49:30.628Z,16.20
2017-10-20T17:52:40.592Z,16.10
2017-10-20T17:55:50.464Z,16.10
2017-10-20T17:59:00.762Z,16.00
2017-10-20T18:02:10.778Z,16.00
2017-10-20T18:05:21.427Z,16.00
2017-10-20T18:08:31.884Z,16.00
2017-10-20T18:11:42.004Z,16.00
2017-10-20T18:14:52.667Z,16.00
2017-10-20T18:18:02.963Z,16.00
2017-10-20T18:21:13.053Z,15.90
2017-10-20T18:24:23.280Z,15.80
2017-10-20T18:34:43.575Z,15.70
2017-10-20T18:37:53.867Z,15.70
2017-10-20T18:41:05.093Z,15.80
2017-10-20T18:44:15.324Z,15.70
2017-10-20T18:47:25.403Z,15.70
2017-10-20T18:50:35.907Z,15.70
2017-10-20T18:53:46.504Z,15.80
2017-10-20T18:56:56.591Z,15.70
2017-10-20T19:00:06.927Z,15.70
2017-10-20T19:03:17.577Z,15.70
2017-10-20T19:06:27.559Z,15.70
2017-10-20T19:09:37.601Z,15.60
2017-10-20T19:12:47.608Z,15.70
2017-10-20T19:15:57.912Z,15.70
2017-10-20T19:19:08.032Z,15.60
2017-10-20T19:22:18.660Z,15.50
2017-10-20T19:25:28.886Z,15.50
2017-10-20T19:28:38.831Z,15.50
2017-10-20T19:31:49.595Z,15.40
2017-10-20T19:35:00.496Z,15.40
2017-10-20T19:38:10.494Z,15.40
2017-10-20T19:41:20.585Z,15.40
2017-10-20T19:44:30.693Z,15.40
2017-10-20T19:47:41.240Z,15.30
2017-10-20T19:50:52.169Z,15.10
2017-10-20T19:54:02.329Z,15.10
2017-10-20T19:57:13.195Z,15.00
2017-10-20T20:00:23.145Z,15.00
2017-10-20T20:03:32.887Z,15.00
2017-10-20T20:06:42.762Z,14.80
2017-10-20T20:09:52.616Z,14.70
2017-10-20T20:13:02.591Z,14.60
2017-10-20T20:16:12.660Z,14.40
2017-10-20T20:19:23.317Z,14.30
2017-10-20T20:22:33.210Z,14.30
2017-10-20T20:25:43.138Z,14.20
2017-10-20T20:28:53.026Z,14.20
2017-10-20T20:32:06.068Z,14.10
2017-10-20T20:35:16.216Z,14.10
2017-10-20T20:38:25.997Z,14.00
2017-10-20T20:41:36.263Z,14.00
2017-10-20T20:44:49.118Z,13.80
2017-10-20T20:47:59.220Z,13.80
2017-10-20T20:51:10.141Z,13.80
2017-10-20T20:54:20.367Z,13.80
2017-10-20T20:57:30.168Z,13.70
2017-10-20T21:00:40.334Z,13.60
2017-10-20T21:03:50.515Z,13.50
2017-10-20T21:07:00.631Z,13.50
2017-10-20T21:10:10.507Z,13.40
2017-10-20T21:13:20.628Z,13.40
2017-10-20T21:16:31.445Z,13.40
2017-10-20T21:19:41.411Z,13.40
2017-10-20T21:22:51.308Z,13.20
2017-10-20T21:26:01.479Z,13.10
2017-10-20T21:29:11.479Z,13.00
2017-10-20T21:32:21.527Z,12.90
2017-10-20T21:35:31.392Z,12.90
2017-10-20T21:38:41.359Z,13.00
2017-10-20T21:41:51.432Z,12.90
2017-10-20T21:45:01.461Z,12.70
2017-10-20T21:48:12.547Z,12.60
2017-10-20T21:51:23.139Z,12.60
2017-10-20T21:54:33.193Z,12.50
2017-10-20T21:57:43.321Z,12.60
2017-10-20T22:00:53.107Z,12.60
2017-10-20T22:04:04.054Z,12.40
2017-10-20T22:07:14.654Z,12.40
2017-10-20T22:10:24.719Z,12.30
2017-10-20T22:13:34.581Z,12.10
2017-10-20T22:16:45.484Z,12.20
2017-10-20T22:19:56.482Z,12.10
2017-10-20T22:23:07.006Z,12.10
2017-10-20T22:26:17.731Z,11.90
2017-10-20T22:29:28.210Z,11.90
2017-10-20T22:32:38.293Z,11.70
2017-10-20T22:35:48.481Z,11.70
2017-10-20T22:38:58.468Z,11.70
2017-10-20T22:42:09.371Z,11.40
2017-10-20T22:45:19.813Z,11.40
2017-10-20T22:48:29.775Z,11.30
2017-10-20T22:51:39.750Z,11.40
2017-10-20T22:54:50.068Z,11.20
2017-10-20T22:58:00.169Z,11.20
2017-10-20T23:01:10.169Z,11.10
2017-10-20T23:04:19.926Z,11.00
2017-10-20T23:07:30.987Z,11.00
2017-10-20T23:10:42.706Z,11.00
2017-10-20T23:13:53.298Z,11.00
2017-10-20T23:17:03.218Z,10.90
2017-10-20T23:20:13.177Z,10.90
2017-10-20T23:23:23.862Z,10.70
2017-10-20T23:26:34.274Z,10.70
2017-10-20T23:29:44.492Z,10.70
2017-10-20T23:32:54.648Z,10.70
2017-10-20T23:36:05.327Z,10.60
2017-10-20T23:39:16.809Z,10.60
2017-10-20T23:42:27.317Z,10.50
2017-10-20T23:45:37.191Z,10.50
2017-10-20T23:48:47.295Z,10.40
2017-10-20T23:51:57.328Z,10.40
2017-10-20T23:55:07.367Z,10.40
2017-10-20T23:58:17.166Z,10.30
